»·PEaware :: WAT175 KATL-KCLE

WAT175 :: KATL-KCLE

FLIGHT INFORMATION

Flight Status: Arrived
Operator:
Walker Air Transport
More flights by this operator :: More flights under this callsign
Pilot: Michael C. (27126)
Aircraft: BOEING 737-800
(B738)
More flights by this aircraft type
Origin: KATL Hartsfield-Jackson Atlanta
United States
Destination: KCLE Cleveland-Hopkins Intl
United States
More flights between these airports :: More routes between these airports
Route: SMKEY2 BOBBD BUGME J91 BULEY HNN JANYS ROLLN2
File this flight plan on PilotEdge
Remarks: RMK / SIMBRIEF
Altitude:
(Current/Filed)
37,000ft
Speed:
(Current/Filed)
449kts
Departed: 12-Nov-20 07:27 AM
Arrived: 12-Nov-20 08:38 AM
Distance/Time
Traveled:
482nm/1:11
Distance/Time
To Go:
Arrived

Flight Plot

Page will automatically refresh every two minutes.

Flight plan parsing failed; only flown route is shown


Map Options




Map Legend


Flown Route
Filed Route
Departure Airport
Arrival Airport
Navaid (VOR, NDB)
Fix

Horizontal Profiles

Position Reports

Time Latitude Longitude Heading Altitude Ground
Speed
12-Nov-20 07:25 33.646793 -84.406487 270 974ft 0kts
12-Nov-20 07:26 33.646800 -84.407382 270 974ft 41kts
12-Nov-20 07:27 33.647213 -84.456534 280 2722ft 179kts
12-Nov-20 07:28 33.670493 -84.523418 295 4673ft 254kts
12-Nov-20 07:29 33.721745 -84.580820 347 8127ft 278kts
12-Nov-20 07:30 33.802696 -84.578455 9 10812ft 319kts
12-Nov-20 07:31 33.889538 -84.528870 26 13182ft 360kts
12-Nov-20 07:32 33.979257 -84.468968 26 15835ft 378kts
12-Nov-20 07:33 34.073365 -84.406141 25 18234ft 395kts
12-Nov-20 07:34 34.171509 -84.340509 25 20417ft 411kts
12-Nov-20 07:35 34.275002 -84.277072 17 22396ft 421kts
12-Nov-20 07:36 34.388837 -84.238980 6 24198ft 428kts
12-Nov-20 07:37 34.507361 -84.210760 5 25835ft 441kts
12-Nov-20 07:38 34.629373 -84.181967 5 27327ft 453kts
12-Nov-20 07:39 34.754796 -84.152378 5 28702ft 464kts
12-Nov-20 07:40 34.882731 -84.117506 7 29968ft 476kts
12-Nov-20 07:41 35.013423 -84.080902 7 31247ft 482kts
12-Nov-20 07:42 35.144340 -84.044243 7 32712ft 481kts
12-Nov-20 07:43 35.275229 -84.007663 7 34023ft 480kts
12-Nov-20 07:44 35.405453 -83.971094 7 35315ft 477kts
12-Nov-20 07:45 35.534798 -83.934667 7 36462ft 475kts
12-Nov-20 07:46 35.664431 -83.898056 7 37072ft 485kts
12-Nov-20 07:47 35.798198 -83.855556 15 37077ft 510kts
12-Nov-20 07:48 35.944395 -83.785102 17 37082ft 510kts
12-Nov-20 07:49 36.126365 -83.693255 18 37080ft 509kts
12-Nov-20 07:50 36.259509 -83.625202 17 37077ft 509kts
12-Nov-20 07:51 36.390640 -83.557918 17 37077ft 509kts
12-Nov-20 07:52 36.521571 -83.490519 18 37073ft 510kts
12-Nov-20 07:53 36.652242 -83.419520 22 37074ft 514kts
12-Nov-20 07:54 36.779397 -83.338034 23 37088ft 512kts
12-Nov-20 07:55 36.908171 -83.255154 23 37128ft 513kts
12-Nov-20 07:56 37.035634 -83.172683 23 37160ft 519kts
12-Nov-20 07:57 37.165077 -83.088611 24 37159ft 529kts
12-Nov-20 07:58 37.296842 -83.002487 24 37165ft 531kts
12-Nov-20 07:59 37.429525 -82.915168 25 37164ft 544kts
12-Nov-20 08:00 37.564917 -82.826033 26 37163ft 552kts
12-Nov-20 08:01 37.700934 -82.736035 27 37164ft 556kts
12-Nov-20 08:02 37.839724 -82.648600 15 37159ft 552kts
12-Nov-20 08:03 37.988180 -82.598906 11 37171ft 547kts
12-Nov-20 08:04 38.132115 -82.551829 11 37192ft 544kts
12-Nov-20 08:06 38.280063 -82.503366 11 37192ft 544kts
12-Nov-20 08:07 38.427015 -82.455149 11 37193ft 546kts
12-Nov-20 08:08 38.574259 -82.406705 11 37202ft 545kts
12-Nov-20 08:09 38.720918 -82.358355 11 37196ft 545kts
12-Nov-20 08:10 38.867223 -82.310289 12 37200ft 546kts
12-Nov-20 08:11 39.015307 -82.261602 10 37202ft 556kts
12-Nov-20 08:12 39.160717 -82.213584 10 37198ft 529kts
12-Nov-20 08:13 39.301151 -82.167126 10 37203ft 525kts
12-Nov-20 08:14 39.443597 -82.119922 10 35441ft 531kts
12-Nov-20 08:15 39.585537 -82.072693 10 33444ft 518kts
12-Nov-20 08:16 39.726101 -82.025884 10 33218ft 526kts
12-Nov-20 08:17 39.867449 -81.987587 5 30145ft 519kts
12-Nov-20 08:18 40.005277 -81.954581 5 26463ft 486kts
12-Nov-20 08:19 40.133544 -81.923617 5 23862ft 461kts
12-Nov-20 08:20 40.257382 -81.893708 5 21280ft 432kts
12-Nov-20 08:21 40.369097 -81.866687 5 19811ft 387kts
12-Nov-20 08:22 40.472111 -81.841928 5 18266ft 368kts
12-Nov-20 08:22 40.553969 -81.822430 5 17096ft 352kts
12-Nov-20 08:24 40.665154 -81.796463 6 15165ft 340kts
12-Nov-20 08:24 40.741394 -81.778601 7 13914ft 329kts
12-Nov-20 08:26 40.844374 -81.754409 8 12191ft 315kts
12-Nov-20 08:27 40.929672 -81.743475 359 10735ft 303kts
12-Nov-20 08:27 40.997996 -81.740808 359 9957ft 279kts
12-Nov-20 08:28 41.068145 -81.771244 312 8449ft 273kts
12-Nov-20 08:29 41.108676 -81.850063 306 6683ft 254kts
12-Nov-20 08:30 41.151408 -81.926046 335 4415ft 250kts
12-Nov-20 08:31 41.217343 -81.942052 345 3024ft 225kts
12-Nov-20 08:32 41.271870 -81.964195 345 3020ft 182kts
12-Nov-20 08:33 41.310741 -81.978437 356 3012ft 156kts
12-Nov-20 08:34 41.348979 -81.954786 44 2734ft 158kts
12-Nov-20 08:35 41.374950 -81.913077 45 1440ft 147kts
12-Nov-20 08:36 41.402191 -81.869906 49 774ft 130kts
12-Nov-20 08:37 41.409687 -81.855823 51 772ft 21kts
12-Nov-20 08:38 41.413328 -81.850026 50 772ft 21kts
12-Nov-20 08:39 41.413097 -81.844554 125 772ft 24kts

Navigation Log

Ident Type
Flight plan parsing failed, navigation log unavailable